sensor_id;sensor_type;location;lat;lon;timestamp;pressure;altitude;pressure_sealevel;temperature;humidity
69751;BME280;57335;52.288;6.056;2023-02-18T00:01:19;102150.72;;;8.93;100.00
69751;BME280;57335;52.288;6.056;2023-02-18T00:03:46;102129.16;;;8.91;100.00
69751;BME280;57335;52.288;6.056;2023-02-18T00:08:42;102132.09;;;8.96;100.00
69751;BME280;57335;52.288;6.056;2023-02-18T00:11:09;102130.00;;;9.00;100.00
69751;BME280;57335;52.288;6.056;2023-02-18T00:13:36;102134.72;;;9.05;100.00
69751;BME280;57335;52.288;6.056;2023-02-18T00:16:05;102135.69;;;9.04;100.00
69751;BME280;57335;52.288;6.056;2023-02-18T00:18:32;102140.75;;;9.05;100.00
69751;BME280;57335;52.288;6.056;2023-02-18T00:20:59;102142.88;;;9.10;100.00
69751;BME280;57335;52.288;6.056;2023-02-18T00:23:25;102127.19;;;9.02;100.00
69751;BME280;57335;52.288;6.056;2023-02-18T00:26:04;102139.94;;;9.13;100.00
69751;BME280;57335;52.288;6.056;2023-02-18T00:28:31;102131.09;;;9.14;100.00
69751;BME280;57335;52.288;6.056;2023-02-18T00:30:57;102120.63;;;9.14;100.00
69751;BME280;57335;52.288;6.056;2023-02-18T00:33:24;102118.66;;;9.16;100.00
69751;BME280;57335;52.288;6.056;2023-02-18T00:35:50;102120.81;;;9.12;100.00
69751;BME280;57335;52.288;6.056;2023-02-18T00:38:16;102107.09;;;9.18;100.00
69751;BME280;57335;52.288;6.056;2023-02-18T00:40:43;102117.38;;;9.20;100.00
69751;BME280;57335;52.288;6.056;2023-02-18T00:43:10;102111.16;;;9.21;100.00
69751;BME280;57335;52.288;6.056;2023-02-18T00:45:36;102102.34;;;9.22;100.00
69751;BME280;57335;52.288;6.056;2023-02-18T00:48:02;102108.53;;;9.29;100.00
69751;BME280;57335;52.288;6.056;2023-02-18T00:50:29;102114.56;;;9.30;100.00
69751;BME280;57335;52.288;6.056;2023-02-18T00:52:55;102108.22;;;9.32;100.00
69751;BME280;57335;52.288;6.056;2023-02-18T00:55:21;102096.78;;;9.25;100.00
69751;BME280;57335;52.288;6.056;2023-02-18T00:57:48;102107.06;;;9.35;100.00
69751;BME280;57335;52.288;6.056;2023-02-18T01:00:15;102099.72;;;9.30;100.00
69751;BME280;57335;52.288;6.056;2023-02-18T01:02:41;102096.75;;;9.33;100.00
69751;BME280;57335;52.288;6.056;2023-02-18T01:05:08;102113.28;;;9.42;100.00
69751;BME280;57335;52.288;6.056;2023-02-18T01:07:34;102097.41;;;9.35;100.00
69751;BME280;57335;52.288;6.056;2023-02-18T01:10:00;102096.09;;;9.39;100.00
69751;BME280;57335;52.288;6.056;2023-02-18T01:12:27;102092.34;;;9.42;100.00
69751;BME280;57335;52.288;6.056;2023-02-18T01:14:53;102090.69;;;9.41;100.00
69751;BME280;57335;52.288;6.056;2023-02-18T01:17:20;102087.56;;;9.46;100.00
69751;BME280;57335;52.288;6.056;2023-02-18T01:19:46;102075.47;;;9.45;100.00
69751;BME280;57335;52.288;6.056;2023-02-18T01:22:12;102076.28;;;9.45;100.00
69751;BME280;57335;52.288;6.056;2023-02-18T01:24:39;102073.03;;;9.43;100.00
69751;BME280;57335;52.288;6.056;2023-02-18T01:27:05;102090.50;;;9.51;100.00
69751;BME280;57335;52.288;6.056;2023-02-18T01:29:31;102090.16;;;9.54;100.00
69751;BME280;57335;52.288;6.056;2023-02-18T01:31:58;102080.34;;;9.56;100.00
69751;BME280;57335;52.288;6.056;2023-02-18T01:34:24;102067.75;;;9.51;100.00
69751;BME280;57335;52.288;6.056;2023-02-18T01:36:51;102065.78;;;9.53;100.00
69751;BME280;57335;52.288;6.056;2023-02-18T01:39:17;102074.94;;;9.57;100.00
69751;BME280;57335;52.288;6.056;2023-02-18T01:41:43;102068.09;;;9.56;100.00
69751;BME280;57335;52.288;6.056;2023-02-18T01:44:23;102054.69;;;9.51;100.00
69751;BME280;57335;52.288;6.056;2023-02-18T01:46:50;102067.25;;;9.56;100.00
69751;BME280;57335;52.288;6.056;2023-02-18T01:49:21;102062.69;;;9.50;100.00
69751;BME280;57335;52.288;6.056;2023-02-18T01:51:55;102060.25;;;9.48;100.00
69751;BME280;57335;52.288;6.056;2023-02-18T01:54:32;102069.06;;;9.55;100.00
69751;BME280;57335;52.288;6.056;2023-02-18T01:57:02;102048.94;;;9.56;100.00
69751;BME280;57335;52.288;6.056;2023-02-18T01:59:43;102046.81;;;9.51;100.00
69751;BME280;57335;52.288;6.056;2023-02-18T02:02:14;102048.13;;;9.55;100.00
69751;BME280;57335;52.288;6.056;2023-02-18T02:04:42;102041.06;;;9.56;100.00
69751;BME280;57335;52.288;6.056;2023-02-18T02:07:09;102027.22;;;9.47;100.00
69751;BME280;57335;52.288;6.056;2023-02-18T02:09:38;102035.56;;;9.51;100.00
69751;BME280;57335;52.288;6.056;2023-02-18T02:15:09;102025.72;;;9.53;100.00
69751;BME280;57335;52.288;6.056;2023-02-18T02:32:02;101965.78;;;9.35;100.00
69751;BME280;57335;52.288;6.056;2023-02-18T02:37:34;101962.53;;;9.33;100.00
69751;BME280;57335;52.288;6.056;2023-02-18T02:40:21;101979.50;;;9.37;100.00
69751;BME280;57335;52.288;6.056;2023-02-18T02:46:03;101956.81;;;9.29;100.00
69751;BME280;57335;52.288;6.056;2023-02-18T02:48:50;101948.31;;;9.27;100.00
69751;BME280;57335;52.288;6.056;2023-02-18T02:51:27;101943.72;;;9.29;100.00
69751;BME280;57335;52.288;6.056;2023-02-18T02:54:19;101927.75;;;9.24;100.00
69751;BME280;57335;52.288;6.056;2023-02-18T02:56:46;101918.91;;;9.25;100.00
69751;BME280;57335;52.288;6.056;2023-02-18T02:59:22;101897.69;;;9.12;100.00
69751;BME280;57335;52.288;6.056;2023-02-18T03:08:13;101898.16;;;9.15;100.00
69751;BME280;57335;52.288;6.056;2023-02-18T03:13:48;101895.91;;;9.12;100.00
69751;BME280;57335;52.288;6.056;2023-02-18T03:21:47;101875.47;;;9.08;100.00
69751;BME280;57335;52.288;6.056;2023-02-18T03:24:45;101889.69;;;9.13;100.00
69751;BME280;57335;52.288;6.056;2023-02-18T03:29:59;101871.53;;;9.12;100.00
69751;BME280;57335;52.288;6.056;2023-02-18T03:32:29;101875.31;;;9.09;100.00
69751;BME280;57335;52.288;6.056;2023-02-18T03:35:02;101866.50;;;9.10;100.00
69751;BME280;57335;52.288;6.056;2023-02-18T03:37:31;101852.59;;;9.10;100.00
69751;BME280;57335;52.288;6.056;2023-02-18T03:39:59;101857.50;;;9.13;100.00
69751;BME280;57335;52.288;6.056;2023-02-18T03:42:27;101862.72;;;9.13;100.00
69751;BME280;57335;52.288;6.056;2023-02-18T03:44:54;101854.72;;;9.14;100.00
69751;BME280;57335;52.288;6.056;2023-02-18T03:47:21;101835.63;;;9.06;100.00
69751;BME280;57335;52.288;6.056;2023-02-18T03:49:48;101848.66;;;9.14;100.00
69751;BME280;57335;52.288;6.056;2023-02-18T03:52:14;101827.28;;;9.10;100.00
69751;BME280;57335;52.288;6.056;2023-02-18T03:54:41;101819.06;;;9.13;100.00
69751;BME280;57335;52.288;6.056;2023-02-18T03:57:07;101810.69;;;9.18;100.00
69751;BME280;57335;52.288;6.056;2023-02-18T03:59:34;101820.66;;;9.23;100.00
69751;BME280;57335;52.288;6.056;2023-02-18T04:02:00;101820.84;;;9.21;100.00
69751;BME280;57335;52.288;6.056;2023-02-18T04:04:28;101794.38;;;9.16;100.00
69751;BME280;57335;52.288;6.056;2023-02-18T04:06:54;101809.69;;;9.27;100.00
69751;BME280;57335;52.288;6.056;2023-02-18T04:09:21;101799.38;;;9.26;100.00
69751;BME280;57335;52.288;6.056;2023-02-18T04:11:47;101790.72;;;9.25;100.00
69751;BME280;57335;52.288;6.056;2023-02-18T04:14:14;101789.13;;;9.24;100.00
69751;BME280;57335;52.288;6.056;2023-02-18T04:16:40;101785.59;;;9.32;100.00
69751;BME280;57335;52.288;6.056;2023-02-18T04:19:07;101780.22;;;9.33;100.00
69751;BME280;57335;52.288;6.056;2023-02-18T04:21:33;101778.88;;;9.37;100.00
69751;BME280;57335;52.288;6.056;2023-02-18T04:24:00;101771.81;;;9.38;100.00
69751;BME280;57335;52.288;6.056;2023-02-18T04:26:26;101788.31;;;9.47;100.00
69751;BME280;57335;52.288;6.056;2023-02-18T04:28:53;101779.97;;;9.43;100.00
69751;BME280;57335;52.288;6.056;2023-02-18T04:31:19;101788.94;;;9.49;100.00
69751;BME280;57335;52.288;6.056;2023-02-18T04:33:46;101769.50;;;9.43;100.00
69751;BME280;57335;52.288;6.056;2023-02-18T04:36:12;101766.34;;;9.48;100.00
69751;BME280;57335;52.288;6.056;2023-02-18T04:38:38;101761.66;;;9.43;100.00
69751;BME280;57335;52.288;6.056;2023-02-18T04:41:05;101753.47;;;9.46;100.00
69751;BME280;57335;52.288;6.056;2023-02-18T04:43:31;101753.56;;;9.53;100.00
69751;BME280;57335;52.288;6.056;2023-02-18T04:45:57;101747.53;;;9.52;100.00
69751;BME280;57335;52.288;6.056;2023-02-18T04:48:24;101739.78;;;9.59;100.00
69751;BME280;57335;52.288;6.056;2023-02-18T04:50:50;101738.16;;;9.58;100.00
69751;BME280;57335;52.288;6.056;2023-02-18T04:53:17;101742.03;;;9.62;100.00
69751;BME280;57335;52.288;6.056;2023-02-18T04:55:48;101741.53;;;9.67;100.00
69751;BME280;57335;52.288;6.056;2023-02-18T04:58:15;101712.25;;;9.63;100.00
69751;BME280;57335;52.288;6.056;2023-02-18T05:00:41;101705.38;;;9.62;100.00
69751;BME280;57335;52.288;6.056;2023-02-18T05:03:08;101694.56;;;9.65;100.00
69751;BME280;57335;52.288;6.056;2023-02-18T05:05:34;101690.78;;;9.68;100.00
69751;BME280;57335;52.288;6.056;2023-02-18T05:08:01;101700.09;;;9.70;100.00
69751;BME280;57335;52.288;6.056;2023-02-18T05:10:27;101697.13;;;9.73;100.00
69751;BME280;57335;52.288;6.056;2023-02-18T05:12:53;101679.69;;;9.66;100.00
69751;BME280;57335;52.288;6.056;2023-02-18T05:15:20;101701.63;;;9.79;100.00
69751;BME280;57335;52.288;6.056;2023-02-18T05:17:46;101687.09;;;9.77;100.00
69751;BME280;57335;52.288;6.056;2023-02-18T05:20:13;101690.53;;;9.77;100.00
69751;BME280;57335;52.288;6.056;2023-02-18T05:22:39;101684.84;;;9.74;100.00
69751;BME280;57335;52.288;6.056;2023-02-18T05:25:06;101687.56;;;9.81;100.00
69751;BME280;57335;52.288;6.056;2023-02-18T05:27:32;101664.09;;;9.72;100.00
69751;BME280;57335;52.288;6.056;2023-02-18T05:29:59;101678.69;;;9.82;100.00
69751;BME280;57335;52.288;6.056;2023-02-18T05:32:25;101679.16;;;9.85;100.00
69751;BME280;57335;52.288;6.056;2023-02-18T05:34:52;101662.19;;;9.81;100.00
69751;BME280;57335;52.288;6.056;2023-02-18T05:37:18;101652.91;;;9.78;100.00
69751;BME280;57335;52.288;6.056;2023-02-18T05:39:44;101639.44;;;9.82;100.00
69751;BME280;57335;52.288;6.056;2023-02-18T05:42:11;101647.28;;;9.82;100.00
69751;BME280;57335;52.288;6.056;2023-02-18T05:44:38;101628.72;;;9.76;100.00
69751;BME280;57335;52.288;6.056;2023-02-18T05:47:11;101643.88;;;9.81;100.00
69751;BME280;57335;52.288;6.056;2023-02-18T05:49:39;101648.56;;;9.86;100.00
69751;BME280;57335;52.288;6.056;2023-02-18T05:52:07;101637.63;;;9.82;100.00
69751;BME280;57335;52.288;6.056;2023-02-18T05:54:34;101656.69;;;9.91;100.00
69751;BME280;57335;52.288;6.056;2023-02-18T05:57:01;101647.66;;;9.93;100.00
69751;BME280;57335;52.288;6.056;2023-02-18T05:59:28;101645.41;;;9.90;100.00
69751;BME280;57335;52.288;6.056;2023-02-18T06:01:55;101639.72;;;9.87;100.00
69751;BME280;57335;52.288;6.056;2023-02-18T06:04:21;101636.94;;;9.88;100.00
69751;BME280;57335;52.288;6.056;2023-02-18T06:06:47;101626.00;;;9.85;100.00
69751;BME280;57335;52.288;6.056;2023-02-18T06:09:14;101646.84;;;9.93;100.00
69751;BME280;57335;52.288;6.056;2023-02-18T06:11:40;101629.88;;;9.89;100.00
69751;BME280;57335;52.288;6.056;2023-02-18T06:14:07;101650.28;;;9.93;100.00
69751;BME280;57335;52.288;6.056;2023-02-18T06:16:34;101638.06;;;9.86;100.00
69751;BME280;57335;52.288;6.056;2023-02-18T06:19:00;101631.69;;;9.88;100.00
69751;BME280;57335;52.288;6.056;2023-02-18T06:21:27;101641.31;;;9.88;100.00
69751;BME280;57335;52.288;6.056;2023-02-18T06:23:53;101641.97;;;9.90;100.00
69751;BME280;57335;52.288;6.056;2023-02-18T06:26:19;101644.56;;;9.90;100.00
69751;BME280;57335;52.288;6.056;2023-02-18T06:28:46;101643.59;;;9.91;100.00
69751;BME280;57335;52.288;6.056;2023-02-18T06:31:12;101642.34;;;9.87;100.00
69751;BME280;57335;52.288;6.056;2023-02-18T06:33:39;101643.94;;;9.88;100.00
69751;BME280;57335;52.288;6.056;2023-02-18T06:36:07;101653.44;;;9.89;100.00
69751;BME280;57335;52.288;6.056;2023-02-18T06:38:34;101651.78;;;9.88;100.00
69751;BME280;57335;52.288;6.056;2023-02-18T06:41:01;101644.16;;;9.86;100.00
69751;BME280;57335;52.288;6.056;2023-02-18T06:43:28;101635.91;;;9.89;100.00
69751;BME280;57335;52.288;6.056;2023-02-18T06:45:55;101645.84;;;9.94;100.00
69751;BME280;57335;52.288;6.056;2023-02-18T06:48:22;101646.22;;;9.91;100.00
69751;BME280;57335;52.288;6.056;2023-02-18T06:50:48;101651.06;;;9.94;100.00
69751;BME280;57335;52.288;6.056;2023-02-18T06:53:15;101649.47;;;9.93;100.00
69751;BME280;57335;52.288;6.056;2023-02-18T06:55:42;101649.72;;;9.98;100.00
69751;BME280;57335;52.288;6.056;2023-02-18T06:58:09;101642.78;;;9.90;100.00
69751;BME280;57335;52.288;6.056;2023-02-18T07:00:36;101641.16;;;9.89;100.00
69751;BME280;57335;52.288;6.056;2023-02-18T07:03:03;101648.28;;;9.95;100.00
69751;BME280;57335;52.288;6.056;2023-02-18T07:05:30;101635.91;;;9.89;100.00
69751;BME280;57335;52.288;6.056;2023-02-18T07:07:56;101633.94;;;9.91;100.00
69751;BME280;57335;52.288;6.056;2023-02-18T07:10:23;101632.22;;;9.98;100.00
69751;BME280;57335;52.288;6.056;2023-02-18T07:12:49;101622.91;;;9.96;100.00
69751;BME280;57335;52.288;6.056;2023-02-18T07:15:16;101618.84;;;9.93;100.00
69751;BME280;57335;52.288;6.056;2023-02-18T07:17:42;101625.16;;;9.99;100.00
69751;BME280;57335;52.288;6.056;2023-02-18T07:20:09;101606.75;;;9.92;100.00
69751;BME280;57335;52.288;6.056;2023-02-18T07:22:35;101615.66;;;9.98;100.00
69751;BME280;57335;52.288;6.056;2023-02-18T07:25:02;101617.47;;;9.97;100.00
69751;BME280;57335;52.288;6.056;2023-02-18T07:27:28;101606.44;;;10.02;100.00
69751;BME280;57335;52.288;6.056;2023-02-18T07:29:54;101610.81;;;9.95;100.00
69751;BME280;57335;52.288;6.056;2023-02-18T07:32:21;101623.06;;;10.09;100.00
69751;BME280;57335;52.288;6.056;2023-02-18T07:34:47;101616.94;;;10.02;100.00
69751;BME280;57335;52.288;6.056;2023-02-18T07:37:13;101611.91;;;10.01;100.00
69751;BME280;57335;52.288;6.056;2023-02-18T07:39:41;101607.00;;;9.97;100.00
69751;BME280;57335;52.288;6.056;2023-02-18T07:42:11;101621.00;;;10.05;100.00
69751;BME280;57335;52.288;6.056;2023-02-18T07:44:38;101607.09;;;10.04;100.00
69751;BME280;57335;52.288;6.056;2023-02-18T07:47:06;101610.81;;;9.95;100.00
69751;BME280;57335;52.288;6.056;2023-02-18T07:49:34;101616.84;;;9.95;100.00
69751;BME280;57335;52.288;6.056;2023-02-18T07:52:00;101616.50;;;9.98;100.00
69751;BME280;57335;52.288;6.056;2023-02-18T07:54:29;101620.91;;;9.98;100.00
69751;BME280;57335;52.288;6.056;2023-02-18T07:56:55;101612.19;;;9.91;100.00
69751;BME280;57335;52.288;6.056;2023-02-18T07:59:22;101619.03;;;9.92;100.00
69751;BME280;57335;52.288;6.056;2023-02-18T08:01:48;101635.00;;;9.97;100.00
69751;BME280;57335;52.288;6.056;2023-02-18T08:04:15;101612.72;;;9.86;100.00
69751;BME280;57335;52.288;6.056;2023-02-18T08:06:43;101624.81;;;9.87;100.00
69751;BME280;57335;52.288;6.056;2023-02-18T08:09:11;101622.81;;;9.89;100.00
69751;BME280;57335;52.288;6.056;2023-02-18T08:11:38;101633.75;;;9.93;100.00
69751;BME280;57335;52.288;6.056;2023-02-18T08:14:05;101637.88;;;10.02;100.00
69751;BME280;57335;52.288;6.056;2023-02-18T08:16:31;101613.69;;;10.00;100.00
69751;BME280;57335;52.288;6.056;2023-02-18T08:18:58;101623.00;;;10.03;100.00
69751;BME280;57335;52.288;6.056;2023-02-18T08:21:24;101620.19;;;10.04;100.00
69751;BME280;57335;52.288;6.056;2023-02-18T08:23:52;101612.53;;;10.03;100.00
69751;BME280;57335;52.288;6.056;2023-02-18T08:26:18;101625.88;;;10.08;100.00
69751;BME280;57335;52.288;6.056;2023-02-18T08:28:46;101621.72;;;10.13;100.00
69751;BME280;57335;52.288;6.056;2023-02-18T08:31:24;101623.00;;;10.03;100.00
69751;BME280;57335;52.288;6.056;2023-02-18T08:33:53;101623.41;;;10.06;100.00
69751;BME280;57335;52.288;6.056;2023-02-18T08:36:21;101642.03;;;10.11;100.00
69751;BME280;57335;52.288;6.056;2023-02-18T08:38:47;101641.06;;;10.12;100.00
69751;BME280;57335;52.288;6.056;2023-02-18T08:41:14;101627.84;;;10.06;100.00
69751;BME280;57335;52.288;6.056;2023-02-18T08:43:41;101616.56;;;10.05;100.00
69751;BME280;57335;52.288;6.056;2023-02-18T08:46:07;101619.47;;;10.10;100.00
69751;BME280;57335;52.288;6.056;2023-02-18T08:48:41;101612.16;;;10.06;100.00
69751;BME280;57335;52.288;6.056;2023-02-18T08:51:20;101643.66;;;10.12;100.00
69751;BME280;57335;52.288;6.056;2023-02-18T08:53:48;101638.97;;;10.08;100.00
69751;BME280;57335;52.288;6.056;2023-02-18T08:56:15;101630.84;;;10.03;100.00
69751;BME280;57335;52.288;6.056;2023-02-18T08:58:42;101641.75;;;10.06;100.00
69751;BME280;57335;52.288;6.056;2023-02-18T09:01:10;101636.91;;;10.03;100.00
69751;BME280;57335;52.288;6.056;2023-02-18T09:03:37;101656.66;;;10.06;100.00
69751;BME280;57335;52.288;6.056;2023-02-18T09:06:04;101646.28;;;9.97;100.00
69751;BME280;57335;52.288;6.056;2023-02-18T09:08:31;101643.50;;;9.84;100.00
69751;BME280;57335;52.288;6.056;2023-02-18T09:10:59;101654.25;;;9.89;100.00
69751;BME280;57335;52.288;6.056;2023-02-18T09:13:26;101655.25;;;9.88;100.00
69751;BME280;57335;52.288;6.056;2023-02-18T09:16:01;101642.22;;;9.80;100.00
69751;BME280;57335;52.288;6.056;2023-02-18T09:18:27;101656.94;;;9.81;100.00
69751;BME280;57335;52.288;6.056;2023-02-18T09:20:56;101664.00;;;9.81;100.00
69751;BME280;57335;52.288;6.056;2023-02-18T09:23:24;101658.03;;;9.72;100.00
69751;BME280;57335;52.288;6.056;2023-02-18T09:25:50;101658.84;;;9.72;100.00
69751;BME280;57335;52.288;6.056;2023-02-18T09:28:17;101654.06;;;9.61;100.00
69751;BME280;57335;52.288;6.056;2023-02-18T09:30:43;101658.75;;;9.66;100.00
69751;BME280;57335;52.288;6.056;2023-02-18T09:33:10;101656.03;;;9.59;100.00
69751;BME280;57335;52.288;6.056;2023-02-18T09:35:41;101665.97;;;9.64;100.00
69751;BME280;57335;52.288;6.056;2023-02-18T09:38:14;101657.66;;;9.60;100.00
69751;BME280;57335;52.288;6.056;2023-02-18T09:40:44;101655.03;;;9.60;100.00
69751;BME280;57335;52.288;6.056;2023-02-18T09:43:21;101670.69;;;9.68;100.00
69751;BME280;57335;52.288;6.056;2023-02-18T09:45:49;101669.94;;;9.59;100.00
69751;BME280;57335;52.288;6.056;2023-02-18T09:48:17;101660.63;;;9.57;100.00
69751;BME280;57335;52.288;6.056;2023-02-18T09:50:47;101667.84;;;9.55;100.00
69751;BME280;57335;52.288;6.056;2023-02-18T09:53:17;101669.84;;;9.53;100.00
69751;BME280;57335;52.288;6.056;2023-02-18T09:55:44;101671.19;;;9.49;100.00
69751;BME280;57335;52.288;6.056;2023-02-18T09:58:24;101673.25;;;9.53;100.00
69751;BME280;57335;52.288;6.056;2023-02-18T10:00:58;101686.19;;;9.55;100.00
69751;BME280;57335;52.288;6.056;2023-02-18T10:03:28;101676.41;;;9.49;100.00
69751;BME280;57335;52.288;6.056;2023-02-18T10:06:24;101671.03;;;9.50;100.00
69751;BME280;57335;52.288;6.056;2023-02-18T10:08:53;101676.25;;;9.50;100.00
69751;BME280;57335;52.288;6.056;2023-02-18T10:11:39;101681.03;;;9.47;100.00
69751;BME280;57335;52.288;6.056;2023-02-18T10:14:10;101681.66;;;9.49;100.00
69751;BME280;57335;52.288;6.056;2023-02-18T10:16:37;101685.63;;;9.45;100.00
69751;BME280;57335;52.288;6.056;2023-02-18T10:19:14;101684.91;;;9.51;100.00
69751;BME280;57335;52.288;6.056;2023-02-18T10:21:43;101692.38;;;9.54;100.00
69751;BME280;57335;52.288;6.056;2023-02-18T10:24:31;101688.63;;;9.56;100.00
69751;BME280;57335;52.288;6.056;2023-02-18T10:26:59;101694.66;;;9.57;100.00
69751;BME280;57335;52.288;6.056;2023-02-18T10:29:26;101699.00;;;9.65;100.00
69751;BME280;57335;52.288;6.056;2023-02-18T10:32:01;101692.69;;;9.74;100.00
69751;BME280;57335;52.288;6.056;2023-02-18T10:34:39;101707.03;;;9.78;100.00
69751;BME280;57335;52.288;6.056;2023-02-18T10:40:05;101705.44;;;9.77;100.00
69751;BME280;57335;52.288;6.056;2023-02-18T10:43:11;101713.38;;;9.84;100.00
69751;BME280;57335;52.288;6.056;2023-02-18T10:45:44;101707.41;;;9.90;100.00
69751;BME280;57335;52.288;6.056;2023-02-18T10:48:33;101705.63;;;10.05;100.00
69751;BME280;57335;52.288;6.056;2023-02-18T10:51:14;101696.47;;;10.16;100.00
69751;BME280;57335;52.288;6.056;2023-02-18T10:53:42;101689.47;;;10.31;100.00
69751;BME280;57335;52.288;6.056;2023-02-18T10:56:39;101705.94;;;10.62;100.00
69751;BME280;57335;52.288;6.056;2023-02-18T11:01:54;101708.16;;;11.01;100.00
69751;BME280;57335;52.288;6.056;2023-02-18T11:04:25;101704.66;;;11.15;100.00
69751;BME280;57335;52.288;6.056;2023-02-18T11:06:52;101691.81;;;11.21;100.00
69751;BME280;57335;52.288;6.056;2023-02-18T11:11:58;101691.66;;;11.29;100.00
69751;BME280;57335;52.288;6.056;2023-02-18T11:14:46;101673.44;;;11.21;100.00
69751;BME280;57335;52.288;6.056;2023-02-18T11:17:26;101677.47;;;11.23;100.00
69751;BME280;57335;52.288;6.056;2023-02-18T11:20:00;101673.44;;;11.21;100.00
69751;BME280;57335;52.288;6.056;2023-02-18T11:22:32;101676.91;;;11.06;100.00
69751;BME280;57335;52.288;6.056;2023-02-18T11:25:00;101684.03;;;11.12;100.00
69751;BME280;57335;52.288;6.056;2023-02-18T11:27:45;101695.16;;;11.14;100.00
69751;BME280;57335;52.288;6.056;2023-02-18T11:30:20;101695.41;;;11.20;100.00
69751;BME280;57335;52.288;6.056;2023-02-18T11:32:52;101692.16;;;11.17;100.00
69751;BME280;57335;52.288;6.056;2023-02-18T11:35:26;101680.88;;;11.17;100.00
69751;BME280;57335;52.288;6.056;2023-02-18T11:37:58;101694.47;;;11.27;100.00
69751;BME280;57335;52.288;6.056;2023-02-18T11:40:29;101704.38;;;11.32;100.00
69751;BME280;57335;52.288;6.056;2023-02-18T11:43:15;101701.63;;;11.40;100.00
69751;BME280;57335;52.288;6.056;2023-02-18T11:45:43;101701.84;;;11.38;100.00
69751;BME280;57335;52.288;6.056;2023-02-18T11:48:18;101712.97;;;11.41;100.00
69751;BME280;57335;52.288;6.056;2023-02-18T11:50:52;101711.75;;;11.43;100.00
69751;BME280;57335;52.288;6.056;2023-02-18T11:53:34;101713.31;;;11.37;100.00
69751;BME280;57335;52.288;6.056;2023-02-18T11:56:05;101706.06;;;11.40;100.00
69751;BME280;57335;52.288;6.056;2023-02-18T11:58:43;101708.22;;;11.29;100.00
69751;BME280;57335;52.288;6.056;2023-02-18T12:01:44;101708.66;;;11.33;100.00
69751;BME280;57335;52.288;6.056;2023-02-18T12:04:29;101706.41;;;11.30;100.00
69751;BME280;57335;52.288;6.056;2023-02-18T12:10:10;101713.75;;;11.41;100.00
69751;BME280;57335;52.288;6.056;2023-02-18T12:13:03;101704.94;;;11.49;100.00
69751;BME280;57335;52.288;6.056;2023-02-18T12:18:39;101709.56;;;11.75;100.00
69751;BME280;57335;52.288;6.056;2023-02-18T12:21:22;101693.34;;;11.93;100.00
69751;BME280;57335;52.288;6.056;2023-02-18T12:27:12;101708.00;;;12.15;100.00
69751;BME280;57335;52.288;6.056;2023-02-18T12:32:56;101702.75;;;12.15;100.00
69751;BME280;57335;52.288;6.056;2023-02-18T12:38:33;101709.31;;;11.98;99.35
69751;BME280;57335;52.288;6.056;2023-02-18T12:51:49;101719.72;;;12.13;100.00
69751;BME280;57335;52.288;6.056;2023-02-18T13:00:08;101731.81;;;12.07;99.84
69751;BME280;57335;52.288;6.056;2023-02-18T13:03:02;101727.72;;;11.98;98.10
69751;BME280;57335;52.288;6.056;2023-02-18T13:11:00;101731.72;;;11.94;98.90
69751;BME280;57335;52.288;6.056;2023-02-18T13:13:33;101731.53;;;11.95;99.39
69751;BME280;57335;52.288;6.056;2023-02-18T13:16:10;101726.66;;;11.92;100.00
69751;BME280;57335;52.288;6.056;2023-02-18T13:18:44;101729.72;;;11.96;99.24
69751;BME280;57335;52.288;6.056;2023-02-18T13:21:14;101723.25;;;11.98;100.00
69751;BME280;57335;52.288;6.056;2023-02-18T13:24:01;101729.81;;;12.09;99.94
69751;BME280;57335;52.288;6.056;2023-02-18T13:26:30;101742.94;;;12.09;98.28
69751;BME280;57335;52.288;6.056;2023-02-18T13:29:13;101738.47;;;12.03;97.13
69751;BME280;57335;52.288;6.056;2023-02-18T13:40:18;101733.38;;;11.95;96.59
69751;BME280;57335;52.288;6.056;2023-02-18T13:42:50;101729.28;;;11.92;96.83
69751;BME280;57335;52.288;6.056;2023-02-18T13:45:30;101733.75;;;11.92;97.06
69751;BME280;57335;52.288;6.056;2023-02-18T13:47:57;101735.78;;;11.96;97.30
69751;BME280;57335;52.288;6.056;2023-02-18T13:50:38;101734.59;;;11.99;97.43
69751;BME280;57335;52.288;6.056;2023-02-18T13:55:40;101748.19;;;12.09;97.60
69751;BME280;57335;52.288;6.056;2023-02-18T13:58:15;101746.34;;;12.03;96.26
69751;BME280;57335;52.288;6.056;2023-02-18T14:00:48;101744.78;;;12.15;96.52
69751;BME280;57335;52.288;6.056;2023-02-18T14:03:35;101745.78;;;12.14;96.14
69751;BME280;57335;52.288;6.056;2023-02-18T14:06:12;101740.53;;;12.14;95.51
69751;BME280;57335;52.288;6.056;2023-02-18T14:08:39;101716.84;;;12.01;94.88
69751;BME280;57335;52.288;6.056;2023-02-18T14:13:42;101749.34;;;12.00;95.34
69751;BME280;57335;52.288;6.056;2023-02-18T14:16:10;101748.28;;;11.94;95.48
69751;BME280;57335;52.288;6.056;2023-02-18T14:26:22;101753.97;;;11.98;96.21
69751;BME280;57335;52.288;6.056;2023-02-18T14:28:54;101750.53;;;11.91;94.00
69751;BME280;57335;52.288;6.056;2023-02-18T14:31:41;101753.97;;;11.98;94.97
69751;BME280;57335;52.288;6.056;2023-02-18T14:39:51;101762.09;;;12.03;95.30
69751;BME280;57335;52.288;6.056;2023-02-18T14:42:44;101759.63;;;11.95;93.44
69751;BME280;57335;52.288;6.056;2023-02-18T14:45:21;101751.66;;;11.88;94.80
69751;BME280;57335;52.288;6.056;2023-02-18T14:50:19;101753.16;;;11.91;94.70
69751;BME280;57335;52.288;6.056;2023-02-18T14:52:50;101746.38;;;11.82;93.56
69751;BME280;57335;52.288;6.056;2023-02-18T14:55:22;101771.72;;;11.89;94.53
69751;BME280;57335;52.288;6.056;2023-02-18T14:58:00;101772.44;;;11.83;92.70
69751;BME280;57335;52.288;6.056;2023-02-18T15:00:29;101763.56;;;11.84;94.07
69751;BME280;57335;52.288;6.056;2023-02-18T15:03:00;101763.38;;;11.86;94.08